If you wish to contribute or participate in the discussions about articles you are invited to join SKYbrary as a registered user

 Actions

Le Touquet-Côte d'Opale Airport

From SKYbrary Wiki

LFAT
Airport
ICAO: LFAT – IATA: LTQ
Summary
Name Le Touquet-Côte d'Opale Airport
Region Europe
Territory France FR.gif
Location , Nord-Pas-de-Calais
Serving Le Tourquet
Elevation 10.973 m
36 ft
36 ft10.973 m
Type medium airport
Coordinates 50° 31' 2.59" N, 1° 37' 14.11" E
Runways
Designator Length Width Surface ROPS
6/24 0 m0 ft
0 m0 ft
UNK /
14/32 1850 m6,069.554 ft
40 m131.234 ft
ASP /


METAR
Observation LFAT 221300Z AUTO 28005KT 230V320 CAVOK 17/12 Q1021 NOSIG
Station Le Touquet
Date/Time 22 May 2019 13:00:00
Wind direction 280°
Wind speed 05 kts
Lowest cloud amount clouds and visibility OK
Temperature 17°C
Dew point 12°C
Humidity 72%
QNH 1021 hPa
Weather condition n/a